Time;durP1;ratioP1;P1;durP2;ratioP2;P2;SDS_P1;SDS_P2;PMS_P1;PMS_P2;Temp;Humidity;BMP_temperature;BMP_pressure;BME280_temperature;BME280_humidity;BME280_pressure;Samples;Min_cycle;Max_cycle;Signal;HPM_P1;HPM_P2
2022/05/06 00:01:44;;;;;;;4.07;1.98;;;10.10;77.40;;;;;;4990164;28;20084;-73
2022/05/06 00:04:10;;;;;;;2.65;1.88;;;10.10;77.20;;;;;;5001709;28;20057;-73
2022/05/06 00:06:36;;;;;;;6.25;2.25;;;10.00;77.50;;;;;;5001756;28;20026;-74
2022/05/06 00:09:03;;;;;;;2.63;1.77;;;10.00;77.70;;;;;;4995914;28;20114;-73
2022/05/06 00:11:29;;;;;;;2.78;1.75;;;9.90;77.80;;;;;;4997182;28;20029;-73
2022/05/06 00:13:55;;;;;;;4.75;2.00;;;9.90;78.00;;;;;;4991338;28;20034;-74
2022/05/06 00:16:22;;;;;;;3.38;1.98;;;9.90;78.00;;;;;;4991092;28;20088;-74
2022/05/06 00:18:49;;;;;;;5.10;2.20;;;9.90;78.10;;;;;;4989352;28;20477;-74
2022/05/06 00:21:15;;;;;;;5.15;2.15;;;9.90;78.30;;;;;;4988283;28;20038;-74
2022/05/06 00:23:40;;;;;;;2.83;2.03;;;9.80;78.60;;;;;;5000240;28;20037;-74
2022/05/06 00:26:07;;;;;;;3.13;1.92;;;9.80;78.60;;;;;;4992792;28;20022;-73
2022/05/06 00:28:33;;;;;;;3.80;2.25;;;9.70;78.60;;;;;;4993167;28;20087;-74
2022/05/06 00:31:01;;;;;;;3.83;1.88;;;9.70;78.50;;;;;;4973603;28;20121;-74
2022/05/06 00:33:27;;;;;;;2.10;1.75;;;9.70;78.70;;;;;;4972878;28;20034;-74
2022/05/06 00:35:54;;;;;;;2.33;1.92;;;9.70;79.40;;;;;;4984668;28;20069;-74
2022/05/06 00:38:20;;;;;;;4.22;2.00;;;9.60;80.00;;;;;;4972483;28;20513;-73
2022/05/06 00:40:46;;;;;;;2.03;1.83;;;9.60;80.20;;;;;;5002105;28;20085;-73
2022/05/06 00:43:12;;;;;;;5.68;2.28;;;9.60;79.80;;;;;;4994446;28;20065;-74
2022/05/06 00:45:48;;;;;;;4.38;2.25;;;9.50;79.80;;;;;;4977525;28;20037;-74
2022/05/06 00:48:16;;;;;;;5.97;2.30;;;9.50;80.50;;;;;;4994855;28;20023;-73
2022/05/06 00:50:44;;;;;;;5.68;2.05;;;9.50;80.90;;;;;;4993646;28;20041;-74
2022/05/06 00:53:11;;;;;;;2.63;2.30;;;9.50;81.00;;;;;;4993424;28;20493;-73
2022/05/06 00:55:37;;;;;;;4.35;2.55;;;9.50;81.10;;;;;;4998024;28;20034;-73
2022/05/06 00:58:04;;;;;;;2.85;2.13;;;9.50;81.30;;;;;;4982155;28;20040;-73
2022/05/06 01:00:30;;;;;;;2.97;2.20;;;9.40;81.60;;;;;;4998855;28;20041;-73
2022/05/06 01:02:56;;;;;;;2.92;2.05;;;9.40;81.60;;;;;;4996301;28;20398;-73
2022/05/06 01:05:22;;;;;;;3.42;2.13;;;9.40;81.40;;;;;;4998532;28;20046;-74
2022/05/06 01:07:50;;;;;;;3.38;1.95;;;9.40;81.60;;;;;;4995238;28;20493;-74
2022/05/06 01:10:17;;;;;;;3.25;1.92;;;9.40;81.90;;;;;;4979909;28;20133;-73
2022/05/06 01:12:45;;;;;;;3.70;1.95;;;9.30;81.50;;;;;;4983264;28;20030;-73
2022/05/06 01:15:22;;;;;;;4.57;2.25;;;9.30;81.50;;;;;;4979630;28;20128;-73
2022/05/06 01:17:53;;;;;;;4.93;2.42;;;9.20;81.60;;;;;;4985674;28;20626;-74
2022/05/06 01:20:20;;;;;;;4.22;2.42;;;9.20;82.40;;;;;;4979755;28;20037;-74
2022/05/06 01:22:48;;;;;;;5.43;2.33;;;9.20;82.90;;;;;;4998058;28;20026;-73
2022/05/06 01:25:14;;;;;;;7.47;2.80;;;9.20;83.40;;;;;;4985816;28;20034;-74
2022/05/06 01:27:55;;;;;;;5.63;2.42;;;9.20;83.60;;;;;;4981425;28;20029;-73
2022/05/06 01:30:40;;;;;;;3.88;2.40;;;9.20;83.70;;;;;;4983557;28;20445;-73
2022/05/06 01:33:17;;;;;;;4.72;2.45;;;9.20;83.60;;;;;;4995304;28;20026;-74
2022/05/06 01:35:58;;;;;;;3.78;2.50;;;9.20;83.50;;;;;;4980379;28;20454;-74
2022/05/06 01:38:46;;;;;;;5.10;2.30;;;9.20;83.90;;;;;;4985838;28;20030;-74
2022/05/06 01:41:21;;;;;;;6.22;2.80;;;9.20;84.10;;;;;;4983847;28;20030;-74
2022/05/06 01:44:09;;;;;;;4.03;2.72;;;9.20;84.30;;;;;;4985598;28;20034;-73
2022/05/06 01:46:37;;;;;;;7.22;3.03;;;9.20;84.70;;;;;;4978053;28;20030;-73
2022/05/06 01:49:06;;;;;;;6.68;2.63;;;9.10;85.30;;;;;;4976794;28;20037;-73
2022/05/06 01:51:35;;;;;;;4.72;2.92;;;9.10;86.20;;;;;;4975770;28;20686;-74
2022/05/06 01:54:04;;;;;;;2.80;2.28;;;9.10;85.60;;;;;;4987793;28;20402;-74
2022/05/06 01:56:31;;;;;;;4.65;2.55;;;9.10;84.50;;;;;;4980801;28;20034;-73
2022/05/06 01:58:57;;;;;;;4.00;2.80;;;9.00;83.90;;;;;;5005370;28;20561;-73
2022/05/06 02:01:23;;;;;;;3.38;2.78;;;9.00;83.50;;;;;;4984228;28;20157;-73
2022/05/06 02:06:35;;;;;;;7.97;2.90;;;9.00;85.10;;;;;;4988100;28;20048;-73
2022/05/06 02:09:08;;;;;;;8.68;3.20;;;9.00;86.40;;;;;;4987051;28;20285;-74
2022/05/06 02:11:49;;;;;;;3.90;2.67;;;9.00;85.80;;;;;;4986617;28;20121;-74
2022/05/06 02:14:16;;;;;;;3.38;2.55;;;8.90;84.60;;;;;;4979379;28;20034;-74
2022/05/06 02:17:17;;;;;;;6.32;2.50;;;8.90;84.70;;;;;;4998079;28;20157;-74
2022/05/06 02:19:49;;;;;;;4.63;2.88;;;8.80;84.10;;;;;;4980495;28;20440;-74
2022/05/06 02:22:37;;;;;;;4.47;2.80;;;8.80;83.30;;;;;;4994481;28;20116;-74
2022/05/06 02:25:36;;;;;;;3.97;2.55;;;8.70;82.30;;;;;;4968074;28;20030;-74
2022/05/06 02:28:17;;;;;;;4.82;2.47;;;8.60;82.60;;;;;;4988473;28;20038;-74
2022/05/06 02:33:43;;;;;;;4.78;2.67;;;8.40;83.80;;;;;;4985034;28;20061;-74
2022/05/06 02:36:18;;;;;;;5.63;2.53;;;8.30;84.50;;;;;;4982728;28;20030;-73
2022/05/06 02:38:45;;;;;;;4.00;2.45;;;8.30;85.10;;;;;;4987116;28;20529;-74
2022/05/06 02:41:14;;;;;;;4.45;2.65;;;8.30;85.50;;;;;;4982866;28;20100;-74
2022/05/06 02:43:58;;;;;;;4.45;2.65;;;8.20;86.40;;;;;;4996743;28;20415;-74
2022/05/06 02:46:33;;;;;;;6.57;2.67;;;8.20;86.60;;;;;;4988404;28;20063;-74
2022/05/06 02:49:03;;;;;;;5.20;3.03;;;8.20;87.40;;;;;;4981353;28;20053;-73
2022/05/06 02:51:29;;;;;;;6.57;3.30;;;8.20;88.30;;;;;;4980175;28;20125;-73
2022/05/06 02:53:59;;;;;;;6.32;2.88;;;8.30;89.00;;;;;;4984211;28;20030;-74
2022/05/06 02:56:30;;;;;;;4.05;2.70;;;8.30;88.60;;;;;;4983295;28;20034;-74
2022/05/06 02:58:59;;;;;;;4.72;2.60;;;8.20;88.50;;;;;;4984686;28;20440;-73
2022/05/06 03:01:29;;;;;;;6.57;3.15;;;8.20;87.80;;;;;;4988446;28;21217;-73
2022/05/06 03:03:58;;;;;;;8.52;4.22;;;8.20;87.10;;;;;;4986690;28;20105;-73
2022/05/06 03:06:24;;;;;;;10.77;3.75;;;8.10;86.60;;;;;;4982866;28;20116;-74
2022/05/06 03:08:51;;;;;;;7.38;3.63;;;8.10;86.00;;;;;;4999234;28;20109;-73
2022/05/06 03:11:22;;;;;;;5.13;2.63;;;8.10;85.80;;;;;;4980500;28;20048;-74
2022/05/06 03:13:54;;;;;;;4.63;2.92;;;8.00;85.70;;;;;;4987613;28;20030;-74
2022/05/06 03:16:24;;;;;;;8.88;3.03;;;7.90;85.70;;;;;;4988730;28;20040;-74
2022/05/06 03:18:50;;;;;;;4.95;2.97;;;7.80;86.20;;;;;;4988300;28;20476;-72
2022/05/06 03:21:16;;;;;;;4.78;3.20;;;7.90;87.20;;;;;;5003785;28;20577;-73
2022/05/06 03:23:47;;;;;;;6.60;3.50;;;7.80;88.80;;;;;;4986517;28;20121;-73
2022/05/06 03:26:12;;;;;;;4.65;3.13;;;7.90;90.40;;;;;;4982216;28;20030;-74
2022/05/06 03:28:38;;;;;;;6.80;3.15;;;8.00;90.90;;;;;;4988731;28;20653;-73
2022/05/06 03:31:04;;;;;;;6.03;3.00;;;8.00;91.00;;;;;;5002362;28;20038;-74
2022/05/06 03:33:35;;;;;;;4.88;3.60;;;8.00;91.10;;;;;;4988212;28;20026;-73
2022/05/06 03:36:13;;;;;;;6.30;3.45;;;8.10;91.20;;;;;;4984760;28;20034;-75
2022/05/06 03:38:48;;;;;;;7.33;4.67;;;8.20;91.60;;;;;;4985588;28;20018;-73
2022/05/06 03:41:14;;;;;;;4.50;3.55;;;8.30;91.80;;;;;;4985284;28;20084;-74
2022/05/06 03:43:42;;;;;;;8.45;3.38;;;8.40;92.00;;;;;;4985581;28;20064;-74
2022/05/06 03:46:15;;;;;;;7.82;3.60;;;8.40;91.20;;;;;;4985782;28;20097;-74
2022/05/06 03:48:41;;;;;;;4.35;2.85;;;8.40;89.50;;;;;;4987695;28;20041;-75
2022/05/06 03:51:21;;;;;;;8.15;5.25;;;8.40;87.60;;;;;;4981056;28;20034;-75
2022/05/06 03:53:54;;;;;;;9.00;3.92;;;8.30;86.40;;;;;;4983859;28;20453;-74
2022/05/06 03:56:22;;;;;;;6.32;3.13;;;8.30;85.20;;;;;;4981869;28;20030;-73
2022/05/06 03:58:50;;;;;;;5.57;3.13;;;8.20;85.70;;;;;;4981555;28;20026;-77
2022/05/06 04:01:19;;;;;;;5.63;2.97;;;8.20;86.70;;;;;;4969378;28;20038;-71
2022/05/06 04:03:49;;;;;;;7.60;3.80;;;8.20;86.80;;;;;;4982367;28;20631;-73
2022/05/06 04:06:15;;;;;;;11.27;4.45;;;8.10;86.50;;;;;;4986434;28;20034;-71
2022/05/06 04:08:47;;;;;;;6.00;3.78;;;8.10;86.60;;;;;;4986141;28;20389;-70
2022/05/06 04:11:14;;;;;;;6.30;3.33;;;8.10;86.50;;;;;;4987854;28;20034;-70
2022/05/06 04:13:43;;;;;;;4.45;3.15;;;8.00;86.50;;;;;;4985566;28;20026;-74
2022/05/06 04:16:09;;;;;;;6.47;4.00;;;8.00;87.00;;;;;;4982602;28;20034;-72
2022/05/06 04:18:36;;;;;;;6.88;3.40;;;8.00;87.40;;;;;;4986412;28;20045;-73
2022/05/06 04:23:48;;;;;;;4.65;3.42;;;8.20;88.20;;;;;;4984720;28;20026;-74
2022/05/06 04:26:16;;;;;;;5.28;3.53;;;8.20;88.80;;;;;;4981655;28;20559;-72
2022/05/06 04:28:52;;;;;;;5.40;3.75;;;8.30;89.30;;;;;;5001133;28;20470;-69
2022/05/06 04:31:18;;;;;;;6.38;3.95;;;8.40;89.40;;;;;;4986847;28;20065;-73
2022/05/06 04:33:46;;;;;;;5.15;3.50;;;8.40;89.10;;;;;;4980238;28;20018;-74
2022/05/06 04:36:22;;;;;;;7.28;3.63;;;8.50;89.00;;;;;;4980360;28;20026;-72
2022/05/06 04:38:52;;;;;;;9.27;3.88;;;8.60;89.20;;;;;;4978985;28;20137;-73
2022/05/06 04:41:20;;;;;;;6.38;3.70;;;8.70;89.20;;;;;;4978942;28;20033;-73
2022/05/06 04:43:46;;;;;;;8.05;4.35;;;8.80;88.60;;;;;;4984807;28;20105;-72
2022/05/06 04:46:12;;;;;;;8.98;4.63;;;8.80;87.80;;;;;;4980217;28;20030;-73
2022/05/06 04:48:39;;;;;;;11.50;4.38;;;8.90;87.40;;;;;;4983151;28;20026;-73
2022/05/06 04:51:09;;;;;;;7.47;4.97;;;9.00;87.20;;;;;;4985170;28;20089;-73
2022/05/06 04:53:35;;;;;;;12.88;5.75;;;9.10;87.20;;;;;;4985673;28;20493;-73
2022/05/06 04:56:01;;;;;;;12.90;5.72;;;9.10;87.10;;;;;;4976802;28;20034;-73
2022/05/06 04:58:39;;;;;;;13.63;5.55;;;9.20;87.00;;;;;;4977827;28;20034;-69
2022/05/06 05:01:10;;;;;;;11.77;4.97;;;9.40;87.00;;;;;;4971415;28;20522;-73
2022/05/06 05:03:38;;;;;;;8.38;4.43;;;9.50;87.20;;;;;;4990188;28;20056;-72
2022/05/06 05:06:06;;;;;;;7.43;3.60;;;9.60;87.40;;;;;;4983243;28;20113;-68
2022/05/06 05:08:32;;;;;;;8.00;4.13;;;9.80;87.80;;;;;;4981693;28;20453;-72
2022/05/06 05:11:02;;;;;;;4.22;3.67;;;10.20;87.70;;;;;;5000023;28;20068;-72
2022/05/06 05:13:38;;;;;;;7.40;3.83;;;10.70;86.80;;;;;;4990944;28;20083;-71
2022/05/06 05:16:05;;;;;;;9.38;4.35;;;11.40;85.00;;;;;;4980371;28;20031;-72
2022/05/06 05:18:31;;;;;;;11.73;5.20;;;12.20;82.40;;;;;;4975310;28;20095;-72
2022/05/06 05:20:57;;;;;;;11.32;4.35;;;13.00;78.20;;;;;;4987437;28;20040;-72
2022/05/06 05:23:23;;;;;;;6.03;3.90;;;13.70;75.40;;;;;;4989164;28;20022;-73
2022/05/06 05:25:50;;;;;;;7.22;4.05;;;14.10;73.20;;;;;;4983752;28;20026;-72
2022/05/06 05:28:15;;;;;;;7.78;3.85;;;14.60;71.30;;;;;;5000039;28;20035;-73
2022/05/06 05:30:42;;;;;;;6.30;4.13;;;15.60;68.50;;;;;;5000035;28;20036;-72
2022/05/06 05:33:09;;;;;;;6.13;3.10;;;16.60;65.40;;;;;;4989182;28;20755;-73
2022/05/06 05:35:41;;;;;;;5.05;2.78;;;17.90;61.40;;;;;;4987234;28;20018;-72
2022/05/06 05:38:09;;;;;;;7.28;2.95;;;19.50;56.40;;;;;;4985563;28;20074;-73
2022/05/06 05:40:35;;;;;;;9.55;2.90;;;20.80;52.90;;;;;;4990535;28;20025;-73
2022/05/06 05:43:04;;;;;;;5.72;3.22;;;22.10;49.70;;;;;;4987763;28;20769;-73
2022/05/06 05:48:20;;;;;;;6.32;2.85;;;23.80;44.90;;;;;;5000780;28;20064;-73
2022/05/06 05:50:48;;;;;;;5.80;3.00;;;23.20;45.00;;;;;;4998432;28;20099;-73
2022/05/06 05:53:18;;;;;;;3.70;2.47;;;22.80;45.50;;;;;;4982416;28;20124;-73
2022/05/06 05:55:45;;;;;;;6.00;2.47;;;22.70;44.70;;;;;;4985988;28;20032;-73
2022/05/06 05:58:15;;;;;;;4.05;2.28;;;22.80;45.00;;;;;;4990049;28;20040;-73
2022/05/06 06:00:42;;;;;;;3.60;2.28;;;22.30;44.70;;;;;;4981315;28;20038;-73
2022/05/06 06:03:08;;;;;;;6.93;2.05;;;22.10;46.20;;;;;;4983284;28;20026;-73
2022/05/06 06:05:38;;;;;;;4.25;2.40;;;22.30;44.90;;;;;;4987296;28;20389;-71
2022/05/06 06:08:04;;;;;;;10.10;2.60;;;22.80;44.30;;;;;;4984631;28;20667;-73
2022/05/06 06:10:33;;;;;;;7.78;2.70;;;23.40;43.00;;;;;;4988912;28;20036;-73
2022/05/06 06:13:04;;;;;;;3.70;2.20;;;23.50;42.50;;;;;;4985353;28;20030;-73
2022/05/06 06:15:33;;;;;;;13.50;2.78;;;22.90;43.50;;;;;;4978077;28;20132;-71
2022/05/06 06:17:59;;;;;;;5.03;2.47;;;22.30;44.90;;;;;;4978831;28;20084;-76
2022/05/06 06:20:27;;;;;;;9.63;2.95;;;21.40;46.60;;;;;;4989461;28;20033;-73
2022/05/06 06:22:53;;;;;;;4.97;2.47;;;20.40;48.90;;;;;;4987932;28;20080;-71
2022/05/06 06:25:20;;;;;;;7.22;3.25;;;20.30;50.10;;;;;;4986892;28;20118;-71
2022/05/06 06:27:46;;;;;;;6.55;3.20;;;20.10;50.70;;;;;;4987455;28;20508;-71
2022/05/06 06:30:13;;;;;;;5.93;3.00;;;19.40;52.20;;;;;;4987247;28;20036;-72
2022/05/06 06:32:39;;;;;;;9.93;4.07;;;18.90;54.00;;;;;;4986580;28;20034;-72
2022/05/06 06:35:08;;;;;;;7.32;3.22;;;18.60;55.50;;;;;;4974189;28;20030;-73
2022/05/06 06:37:40;;;;;;;5.57;2.72;;;18.40;56.00;;;;;;4985733;28;20791;-72
2022/05/06 06:40:07;;;;;;;10.13;3.40;;;18.70;56.10;;;;;;4986477;28;20760;-73
2022/05/06 06:42:33;;;;;;;4.15;2.85;;;19.60;53.40;;;;;;4981113;28;20110;-73
2022/05/06 06:45:13;;;;;;;4.50;2.60;;;20.50;51.40;;;;;;4985865;28;20034;-73
2022/05/06 06:48:02;;;;;;;4.28;2.30;;;20.20;51.40;;;;;;4992861;28;20418;-73
2022/05/06 06:50:53;;;;;;;5.70;2.83;;;19.80;52.60;;;;;;4986020;28;20050;-73
2022/05/06 06:53:23;;;;;;;4.32;2.63;;;19.50;53.30;;;;;;4996577;28;20112;-73
2022/05/06 06:55:48;;;;;;;4.57;2.83;;;19.40;53.00;;;;;;4996429;28;20501;-72
2022/05/06 06:58:14;;;;;;;9.52;3.50;;;19.10;54.30;;;;;;5002229;28;20036;-73
2022/05/06 07:00:42;;;;;;;6.40;2.58;;;18.80;55.50;;;;;;5001650;28;20033;-69
2022/05/06 07:03:09;;;;;;;5.82;2.97;;;18.50;56.20;;;;;;4996102;28;20034;-73
2022/05/06 07:05:35;;;;;;;5.55;2.75;;;18.50;56.40;;;;;;4993160;28;20026;-73
2022/05/06 07:13:30;;;;;;;7.55;2.75;;;18.80;55.30;;;;;;5002388;28;20117;-72
2022/05/06 07:15:56;;;;;;;9.02;3.85;;;18.90;55.50;;;;;;5000317;28;20032;-72
2022/05/06 07:18:21;;;;;;;4.15;2.90;;;18.70;55.50;;;;;;5001998;28;20476;-72
2022/05/06 07:20:48;;;;;;;5.15;3.00;;;19.10;54.70;;;;;;5000179;28;20478;-72
2022/05/06 07:23:14;;;;;;;4.00;3.17;;;19.20;54.60;;;;;;4995833;28;20382;-73
2022/05/06 07:25:39;;;;;;;7.38;3.20;;;19.00;53.70;;;;;;4998688;28;20026;-73
2022/05/06 07:28:06;;;;;;;7.63;3.78;;;19.10;53.60;;;;;;5000435;28;20033;-74
2022/05/06 07:30:32;;;;;;;6.43;3.95;;;19.20;53.60;;;;;;5001729;28;20065;-70
2022/05/06 07:32:58;;;;;;;7.07;3.40;;;19.20;53.30;;;;;;4997442;28;20058;-73
2022/05/06 07:35:24;;;;;;;6.65;3.50;;;19.10;53.60;;;;;;4980590;28;20619;-73
2022/05/06 07:37:50;;;;;;;7.30;3.00;;;19.40;53.30;;;;;;5003561;28;20030;-73
2022/05/06 07:40:16;;;;;;;9.52;4.80;;;19.60;53.10;;;;;;4998775;28;20741;-73
2022/05/06 07:42:43;;;;;;;9.00;4.20;;;19.50;52.70;;;;;;4998608;28;20113;-73
2022/05/06 07:45:11;;;;;;;9.82;5.32;;;19.30;53.00;;;;;;4998351;28;20027;-73
2022/05/06 07:47:38;;;;;;;9.20;4.78;;;19.20;53.30;;;;;;4998929;28;20500;-73
2022/05/06 07:50:04;;;;;;;8.48;4.80;;;19.40;53.10;;;;;;4996797;28;20038;-73
2022/05/06 07:52:31;;;;;;;9.48;4.68;;;20.00;51.40;;;;;;4996190;28;20029;-74
2022/05/06 07:54:56;;;;;;;9.73;5.45;;;19.90;52.00;;;;;;4999871;28;20045;-73
2022/05/06 07:57:22;;;;;;;7.80;4.10;;;19.70;52.50;;;;;;5001617;28;20038;-72
2022/05/06 07:59:48;;;;;;;10.13;4.72;;;19.70;53.60;;;;;;4997341;28;20038;-73
2022/05/06 08:04:59;;;;;;;10.93;4.68;;;19.50;52.80;;;;;;4992543;28;20645;-73
2022/05/06 08:07:25;;;;;;;11.35;4.47;;;19.70;52.60;;;;;;4997132;28;20037;-73
2022/05/06 08:09:50;;;;;;;11.30;5.05;;;20.10;52.40;;;;;;4998904;28;20026;-72
2022/05/06 08:12:16;;;;;;;9.07;5.38;;;20.20;50.90;;;;;;5003736;28;20564;-71
2022/05/06 08:14:43;;;;;;;7.15;4.50;;;20.40;51.40;;;;;;4999913;28;20477;-71
2022/05/06 08:17:09;;;;;;;9.63;5.50;;;20.60;50.90;;;;;;4994500;28;20081;-73
2022/05/06 08:19:34;;;;;;;9.65;4.93;;;20.60;50.90;;;;;;4996596;28;20029;-73
2022/05/06 08:22:00;;;;;;;7.28;4.20;;;20.60;51.60;;;;;;4989663;28;20034;-73
2022/05/06 08:24:27;;;;;;;9.15;4.88;;;20.60;51.40;;;;;;4975191;28;20059;-73
2022/05/06 08:26:53;;;;;;;8.85;5.00;;;20.50;50.80;;;;;;4994162;28;20478;-73
2022/05/06 08:29:19;;;;;;;8.40;5.07;;;20.30;50.80;;;;;;4992999;28;20053;-74
2022/05/06 08:31:45;;;;;;;9.07;4.05;;;20.20;51.70;;;;;;5000230;28;20049;-73
2022/05/06 08:34:12;;;;;;;9.27;4.40;;;20.40;52.90;;;;;;4999958;28;20042;-73
2022/05/06 08:36:41;;;;;;;10.63;4.25;;;20.90;51.00;;;;;;4985446;28;20493;-73
2022/05/06 08:39:08;;;;;;;9.32;4.30;;;21.40;49.30;;;;;;4992183;28;20104;-73
2022/05/06 08:41:36;;;;;;;6.28;4.40;;;21.60;49.40;;;;;;4994118;28;20057;-73
2022/05/06 08:52:33;;;;;;;8.77;4.60;;;20.70;50.00;;;;;;4985546;28;20067;-73
2022/05/06 08:55:01;;;;;;;9.02;4.63;;;20.40;50.90;;;;;;4998258;28;20029;-73
2022/05/06 08:57:27;;;;;;;5.68;3.95;;;21.40;49.30;;;;;;4995690;28;20470;-73
2022/05/06 08:59:53;;;;;;;9.32;3.65;;;22.90;46.30;;;;;;4998773;28;20038;-74
2022/05/06 09:02:19;;;;;;;7.40;3.60;;;23.30;45.60;;;;;;4997883;28;20065;-72
2022/05/06 09:04:45;;;;;;;7.53;4.18;;;23.30;44.90;;;;;;4998142;28;20117;-73
2022/05/06 09:07:14;;;;;;;7.07;3.78;;;23.10;44.40;;;;;;4999303;28;20136;-73
2022/05/06 09:09:40;;;;;;;8.85;4.00;;;23.30;45.40;;;;;;4996871;28;20033;-73
2022/05/06 09:17:47;;;;;;;4.93;3.40;;;22.10;46.40;;;;;;4997152;28;20033;-73
2022/05/06 09:20:23;;;;;;;7.60;4.95;;;22.50;47.10;;;;;;4997576;28;20092;-73
2022/05/06 09:22:52;;;;;;;6.95;4.90;;;23.50;44.00;;;;;;4997993;28;20117;-73
2022/05/06 09:25:34;;;;;;;8.57;4.38;;;24.70;42.30;;;;;;4995353;28;20510;-71
2022/05/06 09:28:00;;;;;;;9.82;3.58;;;25.10;40.60;;;;;;4992031;28;20037;-73
2022/05/06 09:30:26;;;;;;;6.32;3.90;;;27.20;39.00;;;;;;5002266;28;20030;-71
2022/05/06 09:32:52;;;;;;;8.20;4.13;;;27.90;36.90;;;;;;4998463;28;20037;-73
2022/05/06 09:35:18;;;;;;;8.65;3.50;;;27.50;37.00;;;;;;4996142;28;20033;-73
2022/05/06 09:37:48;;;;;;;5.28;3.38;;;27.80;37.10;;;;;;4984765;28;20037;-73
2022/05/06 09:40:27;;;;;;;5.10;3.35;;;29.00;35.90;;;;;;4984506;28;20057;-72
2022/05/06 09:43:00;;;;;;;6.38;4.18;;;29.90;34.00;;;;;;4993499;28;20033;-71
2022/05/06 09:45:33;;;;;;;11.57;3.60;;;29.70;33.40;;;;;;4988328;28;20035;-71
2022/05/06 09:48:03;;;;;;;7.75;3.30;;;27.80;35.30;;;;;;4999973;28;20022;-70
2022/05/06 09:50:41;;;;;;;5.45;2.95;;;26.10;38.20;;;;;;4998914;28;20034;-72
2022/05/06 09:53:11;;;;;;;6.70;3.53;;;24.80;40.70;;;;;;4999208;28;20036;-72
2022/05/06 09:55:38;;;;;;;6.70;3.38;;;24.00;41.80;;;;;;4996970;28;20690;-72
2022/05/06 09:58:06;;;;;;;7.72;3.10;;;23.80;42.60;;;;;;4992201;28;20482;-71
2022/05/06 10:00:32;;;;;;;6.93;3.58;;;24.50;41.40;;;;;;4994919;28;20145;-72
2022/05/06 10:03:00;;;;;;;6.00;3.40;;;25.50;40.10;;;;;;4989910;28;20053;-73
2022/05/06 10:05:28;;;;;;;4.43;2.60;;;26.10;38.50;;;;;;5004790;28;20069;-68
2022/05/06 10:08:17;;;;;;;6.90;3.50;;;26.40;38.30;;;;;;4986603;28;20504;-71
2022/05/06 10:10:55;;;;;;;6.10;3.30;;;26.50;38.20;;;;;;4999617;28;20073;-69
2022/05/06 10:13:22;;;;;;;5.18;3.20;;;27.10;37.80;;;;;;4996464;28;20033;-69
2022/05/06 10:15:51;;;;;;;4.32;3.25;;;26.80;37.80;;;;;;4994008;28;20109;-70
2022/05/06 10:18:34;;;;;;;7.32;3.22;;;25.90;39.10;;;;;;4993101;28;20061;-69
2022/05/06 10:21:04;;;;;;;13.20;3.83;;;24.90;40.20;;;;;;4995759;28;20493;-72
2022/05/06 10:23:57;;;;;;;9.10;4.57;;;24.70;41.30;;;;;;5002434;28;20164;-71
2022/05/06 10:26:53;;;;;;;5.40;3.20;;;25.10;40.60;;;;;;4983117;28;20041;-72
2022/05/06 10:32:51;;;;;;;2.78;2.03;;;25.20;38.50;;;;;;5001411;28;20056;-69
2022/05/06 10:35:17;;;;;;;3.80;1.88;;;25.00;38.70;;;;;;4997522;28;20069;-72
2022/05/06 10:37:45;;;;;;;4.45;2.22;;;25.00;39.10;;;;;;5003978;28;20041;-71
2022/05/06 10:40:22;;;;;;;11.10;2.05;;;25.30;39.40;;;;;;5002847;28;20124;-72
2022/05/06 10:42:49;;;;;;;5.13;1.90;;;26.50;37.80;;;;;;4999480;28;20029;-73
2022/05/06 10:45:33;;;;;;;5.40;2.03;;;27.20;36.30;;;;;;5000468;28;20038;-72
2022/05/06 10:48:00;;;;;;;4.45;2.15;;;27.60;35.20;;;;;;5000457;28;20113;-74
2022/05/06 10:50:36;;;;;;;3.10;1.75;;;27.70;34.20;;;;;;4998962;28;20117;-73
2022/05/06 10:53:04;;;;;;;5.03;1.80;;;27.50;34.90;;;;;;4998150;28;20042;-73
2022/05/06 10:55:30;;;;;;;3.50;1.80;;;28.20;34.80;;;;;;4997992;28;20034;-71
2022/05/06 10:57:58;;;;;;;16.73;2.30;;;29.50;32.60;;;;;;4996460;28;20034;-73
2022/05/06 11:00:27;;;;;;;7.78;2.33;;;28.40;33.90;;;;;;4994460;28;20038;-73
2022/05/06 11:02:54;;;;;;;3.67;2.30;;;27.10;35.30;;;;;;4999899;28;20021;-73
2022/05/06 11:05:21;;;;;;;3.17;2.10;;;26.30;36.40;;;;;;5000925;28;20042;-68
2022/05/06 11:07:49;;;;;;;2.83;1.65;;;25.10;37.60;;;;;;4999018;28;20030;-70
2022/05/06 11:10:20;;;;;;;5.68;1.77;;;24.30;40.20;;;;;;4979405;28;20113;-72
2022/05/06 11:12:48;;;;;;;5.28;2.15;;;23.90;42.00;;;;;;4996689;28;20046;-71
2022/05/06 11:15:16;;;;;;;2.30;1.65;;;23.80;41.40;;;;;;4997018;28;20034;-72
2022/05/06 11:17:43;;;;;;;2.90;1.52;;;23.50;41.60;;;;;;4993686;28;20058;-72
2022/05/06 11:20:26;;;;;;;7.30;1.52;;;23.10;42.50;;;;;;4987849;28;20026;-71
2022/05/06 11:23:09;;;;;;;3.42;1.20;;;22.90;42.10;;;;;;4997760;28;20203;-71
2022/05/06 11:25:37;;;;;;;4.68;1.63;;;22.90;43.10;;;;;;4995154;28;20032;-71
2022/05/06 11:28:09;;;;;;;5.65;1.60;;;23.10;40.60;;;;;;4984091;28;20038;-70
2022/05/06 11:30:37;;;;;;;4.60;1.30;;;23.10;40.90;;;;;;4997255;28;20018;-71
2022/05/06 11:33:04;;;;;;;2.42;1.30;;;22.90;40.10;;;;;;4992162;28;20692;-70
2022/05/06 11:35:48;;;;;;;8.35;2.28;;;22.90;41.50;;;;;;4954926;28;20061;-69
2022/05/06 11:38:14;;;;;;;3.55;1.77;;;22.90;42.50;;;;;;4993934;28;20042;-75
2022/05/06 11:40:40;;;;;;;7.05;2.05;;;23.00;41.40;;;;;;5002710;28;20053;-72
2022/05/06 11:43:18;;;;;;;1.38;1.27;;;23.10;42.00;;;;;;4996585;28;20053;-71
2022/05/06 11:48:31;;;;;;;5.03;1.75;;;23.40;41.10;;;;;;4992240;28;20030;-73
2022/05/06 11:51:00;;;;;;;2.50;1.30;;;23.50;41.70;;;;;;4992504;28;20101;-74
2022/05/06 11:53:27;;;;;;;3.67;1.40;;;23.80;41.60;;;;;;4990356;28;20740;-73
2022/05/06 11:55:55;;;;;;;5.10;1.50;;;23.90;41.20;;;;;;4999777;28;20508;-73
2022/05/06 11:58:22;;;;;;;2.00;1.40;;;23.90;41.10;;;;;;5000845;28;20603;-73
2022/05/06 12:00:51;;;;;;;3.22;1.10;;;23.90;40.30;;;;;;5000388;28;20133;-73
2022/05/06 12:03:18;;;;;;;2.80;1.80;;;23.70;40.70;;;;;;4997814;28;20330;-73
2022/05/06 12:05:57;;;;;;;2.40;1.27;;;23.70;40.90;;;;;;4957556;28;1160925;-73
2022/05/06 12:08:44;;;;;;;3.50;1.60;;;23.60;41.00;;;;;;4996015;28;20521;-73
2022/05/06 12:11:09;;;;;;;6.40;2.75;;;23.70;40.50;;;;;;4996122;28;20569;-73
2022/05/06 12:13:41;;;;;;;5.72;1.70;;;23.80;41.00;;;;;;5001178;28;20125;-74
2022/05/06 12:16:14;;;;;;;9.18;2.38;;;23.90;41.30;;;;;;4999284;28;20033;-74
2022/05/06 12:18:54;;;;;;;2.05;1.45;;;23.70;41.30;;;;;;5000889;28;20141;-73
2022/05/06 12:21:24;;;;;;;4.18;1.67;;;23.80;41.40;;;;;;5000315;28;20041;-74
2022/05/06 12:23:52;;;;;;;2.00;1.30;;;24.00;40.50;;;;;;4979884;28;20026;-74
2022/05/06 12:26:31;;;;;;;1.42;1.25;;;24.10;39.90;;;;;;4997915;28;20030;-74
2022/05/06 12:28:58;;;;;;;2.65;1.45;;;24.00;39.80;;;;;;4998345;28;20041;-74
2022/05/06 12:31:28;;;;;;;4.45;1.40;;;23.80;41.10;;;;;;5001491;28;20113;-75
2022/05/06 12:34:08;;;;;;;2.90;1.45;;;23.60;40.90;;;;;;4994421;28;20042;-75
2022/05/06 12:36:38;;;;;;;2.97;1.48;;;23.40;41.10;;;;;;4995718;28;20529;-74
2022/05/06 12:39:21;;;;;;;10.18;2.00;;;23.30;41.90;;;;;;4997312;28;20044;-73
2022/05/06 12:41:48;;;;;;;6.45;1.70;;;23.20;41.20;;;;;;4999432;28;20124;-74
2022/05/06 12:44:19;;;;;;;4.55;1.50;;;23.30;41.20;;;;;;5000139;28;20061;-74
2022/05/06 12:46:45;;;;;;;3.05;1.17;;;23.60;40.70;;;;;;4993240;28;20145;-75
2022/05/06 12:51:56;;;;;;;3.35;2.40;;;24.20;38.80;;;;;;4995221;28;20029;-75
2022/05/06 12:54:22;;;;;;;30.23;19.60;;;24.20;38.80;;;;;;4989276;28;20035;-74
2022/05/06 12:56:48;;;;;;;217.43;119.30;;;24.10;37.90;;;;;;5000391;28;20032;-73
2022/05/06 12:59:17;;;;;;;28.90;16.90;;;24.00;37.60;;;;;;4995558;28;20062;-73
2022/05/06 13:01:43;;;;;;;8.23;5.95;;;23.90;38.20;;;;;;4997722;28;20034;-74
2022/05/06 13:04:09;;;;;;;5.95;1.02;;;23.80;38.80;;;;;;4994812;28;20026;-74
2022/05/06 13:06:35;;;;;;;3.55;1.38;;;23.90;39.20;;;;;;4989834;28;20554;-74
2022/05/06 13:09:00;;;;;;;5.10;1.35;;;24.10;39.20;;;;;;4991604;28;20030;-74
2022/05/06 13:11:27;;;;;;;5.20;1.33;;;24.10;38.00;;;;;;4993413;28;20069;-74
2022/05/06 13:13:52;;;;;;;3.33;1.65;;;24.20;38.50;;;;;;4995818;28;20120;-74
2022/05/06 13:16:18;;;;;;;2.65;1.02;;;24.40;38.40;;;;;;4993858;28;20141;-74
2022/05/06 13:18:44;;;;;;;1.10;1.02;;;24.40;38.30;;;;;;4977012;28;20030;-74
2022/05/06 13:21:10;;;;;;;3.15;1.10;;;24.40;38.10;;;;;;4991163;28;20147;-74
2022/05/06 13:23:37;;;;;;;3.95;1.40;;;24.50;37.70;;;;;;4996845;28;20506;-74
2022/05/06 13:26:04;;;;;;;3.00;1.00;;;24.70;37.50;;;;;;5004184;28;20034;-74
2022/05/06 13:28:30;;;;;;;1.88;0.85;;;24.60;37.10;;;;;;4999091;28;20133;-74
2022/05/06 13:30:55;;;;;;;1.73;0.90;;;24.40;37.70;;;;;;5002686;28;20113;-74
2022/05/06 13:33:21;;;;;;;1.73;1.05;;;24.20;38.00;;;;;;5004149;28;20105;-74
2022/05/06 13:35:47;;;;;;;1.20;0.90;;;24.00;38.20;;;;;;5000221;28;20017;-75
2022/05/06 13:38:13;;;;;;;2.28;1.20;;;23.80;38.80;;;;;;4998115;28;20512;-74
2022/05/06 13:40:38;;;;;;;1.65;0.98;;;23.70;39.20;;;;;;4978899;28;20093;-73
2022/05/06 13:43:04;;;;;;;2.33;0.80;;;23.60;38.60;;;;;;4959209;28;20145;-74
2022/05/06 13:45:30;;;;;;;1.55;1.13;;;23.50;39.40;;;;;;4958253;28;20137;-74